Overview Statistics Trail Chart Weather Telemetry Raw packets
 

This is the latest recevied weather packets stored in our database for station/object KB4MOX. If no packets are shown the sender has not sent any weather packets the latest 10 day(s).

<< 60 61 62 63 64 65 66 >>
Time Temp. Humidity Pressure Rain* Wind** Luminosity Snow
1788203283 33.33° C 52% 1019.3 hPa 0 mm - 174 W/m² -
1788202982 33.33° C 52% 1019.4 hPa 0 mm - 217 W/m² -
1788202681 32.78° C 53% 1019.5 hPa 0 mm - 774 W/m² -
1788202377 32.78° C 52% 1019.5 hPa 0 mm - 767 W/m² -
1788202076 32.78° C 55% 1019.6 hPa 0 mm - 754 W/m² -
1788201772 32.78° C 56% 1019.7 hPa 0 mm - 818 W/m² -
1788201467 32.22° C 57% 1019.8 hPa 0 mm - 781 W/m² -
1788201167 31.67° C 59% 1020.1 hPa 0 mm - 774 W/m² -
1788200865 31.67° C 58% 1020 hPa 0 mm - 149 W/m² -
1788200561 31.67° C 58% 1020 hPa 0 mm - 139 W/m² -
1788200256 31.67° C 60% 1020.2 hPa 0 mm - 214 W/m² -
1788199952 32.22° C 58% 1020.2 hPa 0 mm - 151 W/m² -
1788199651 32.78° C 54% 1020.3 hPa 0 mm - 128 W/m² -
1788199346 33.33° C 55% 1020.4 hPa 0 mm - 865 W/m² -
1788199045 32.78° C 55% 1020.5 hPa 0 mm - 875 W/m² -
1788198742 32.22° C 56% 1020.4 hPa 0 mm - 815 W/m² -
1788198437 31.11° C 60% 1020.6 hPa 0 mm - 844 W/m² -
1788198133 31.11° C 61% 1020.8 hPa 0 mm - 153 W/m² -
1788197831 31.67° C 60% 1020.6 hPa 0 mm - 172 W/m² -
1788197527 32.22° C 57% 1020.6 hPa 0 mm - 139 W/m² -
1788197227 32.22° C 56% 1020.5 hPa 0 mm - 845 W/m² -
1788196940 31.67° C 58% 1020.8 hPa 0 mm - 824 W/m² -
1788196617 31.67° C 59% 1020.7 hPa 0 mm - 838 W/m² -
1788196314 31.67° C 61% 1020.7 hPa 0 mm - 847 W/m² -
1788196010 31.11° C 62% 1020.7 hPa 0 mm - 99 W/m² -

* Rain latest hour (hover to see other rain measurements)
** Current wind speed in m/s (hover to see current wind gust speed)